createdAt,value
2023-05-08T00:00:39.575Z,28.40
2023-05-08T00:01:39.554Z,28.41
2023-05-08T00:02:39.581Z,28.38
2023-05-08T00:03:39.629Z,28.46
2023-05-08T00:04:39.556Z,28.38
2023-05-08T00:05:39.525Z,28.43
2023-05-08T00:06:39.569Z,28.43
2023-05-08T00:07:39.593Z,28.37
2023-05-08T00:08:39.561Z,28.41
2023-05-08T00:09:39.536Z,28.43
2023-05-08T00:10:39.510Z,28.45
2023-05-08T00:11:39.496Z,28.41
2023-05-08T00:12:39.512Z,28.44
2023-05-08T00:13:39.434Z,28.43
2023-05-08T00:14:39.418Z,28.38
2023-05-08T00:15:39.406Z,28.45
2023-05-08T00:16:39.409Z,28.44
2023-05-08T00:17:39.434Z,28.42
2023-05-08T00:18:39.352Z,28.43
2023-05-08T00:19:39.320Z,28.44
2023-05-08T00:20:39.336Z,28.41
2023-05-08T00:21:39.363Z,28.45
2023-05-08T00:22:39.388Z,28.41
2023-05-08T00:23:39.411Z,28.43
2023-05-08T00:24:39.449Z,28.45
2023-05-08T00:25:39.460Z,28.41
2023-05-08T00:26:39.519Z,28.44
2023-05-08T00:27:39.530Z,28.47
2023-05-08T00:28:39.538Z,28.42
2023-05-08T00:29:39.563Z,28.44
2023-05-08T00:30:39.603Z,28.42
2023-05-08T00:31:39.671Z,28.45
2023-05-08T00:32:39.695Z,28.44
2023-05-08T00:33:39.663Z,28.44
2023-05-08T00:34:39.684Z,28.40
2023-05-08T00:35:39.705Z,28.43
2023-05-08T00:36:39.678Z,28.44
2023-05-08T00:37:39.671Z,28.43
2023-05-08T00:38:39.646Z,28.47
2023-05-08T00:39:39.645Z,28.42
2023-05-08T00:40:39.617Z,28.44
2023-05-08T00:41:39.591Z,28.45
2023-05-08T00:42:39.579Z,28.44
2023-05-08T00:43:39.550Z,28.47
2023-05-08T00:44:39.540Z,28.48
2023-05-08T00:45:39.571Z,28.48
2023-05-08T00:46:39.536Z,28.44
2023-05-08T00:47:39.505Z,28.45
2023-05-08T00:48:39.467Z,28.42
2023-05-08T00:49:39.459Z,28.47
2023-05-08T00:50:39.443Z,28.42
2023-05-08T00:51:39.424Z,28.42
2023-05-08T00:52:39.411Z,28.41
2023-05-08T00:53:39.393Z,28.42
2023-05-08T00:54:39.371Z,28.40
2023-05-08T00:55:39.366Z,28.44
2023-05-08T00:56:39.346Z,28.45
2023-05-08T00:57:39.333Z,28.42
2023-05-08T00:58:39.313Z,28.45
2023-05-08T00:59:39.300Z,28.50
2023-05-08T01:00:39.329Z,28.41
2023-05-08T01:01:39.437Z,28.47
2023-05-08T01:02:39.471Z,28.45
2023-05-08T01:03:39.650Z,28.48
2023-05-08T01:04:39.419Z,28.47
2023-05-08T01:05:39.445Z,28.47
2023-05-08T01:06:39.466Z,28.47
2023-05-08T01:07:39.482Z,28.44
2023-05-08T01:08:39.522Z,28.45
2023-05-08T01:09:39.536Z,28.41
2023-05-08T01:10:39.566Z,28.50
2023-05-08T01:11:39.589Z,28.42
2023-05-08T01:12:39.653Z,28.44
2023-05-08T01:13:39.624Z,28.48
2023-05-08T01:14:39.654Z,28.48
2023-05-08T01:15:39.697Z,28.45
2023-05-08T01:16:39.711Z,28.48
2023-05-08T01:17:39.752Z,28.44
2023-05-08T01:18:39.749Z,28.47
2023-05-08T01:19:39.776Z,28.48
2023-05-08T01:20:39.792Z,28.45
2023-05-08T01:21:39.822Z,28.45
2023-05-08T01:22:39.853Z,28.47
2023-05-08T01:23:39.889Z,28.48
2023-05-08T01:24:39.909Z,28.47
2023-05-08T01:25:39.944Z,28.42
2023-05-08T01:26:39.961Z,28.44
2023-05-08T01:27:39.995Z,28.51
2023-05-08T01:28:40.033Z,28.44
2023-05-08T01:29:40.048Z,28.50
2023-05-08T01:30:40.074Z,28.47
2023-05-08T01:31:40.088Z,28.47
2023-05-08T01:32:40.170Z,28.42
2023-05-08T01:33:40.134Z,28.44
2023-05-08T01:34:40.060Z,28.48
2023-05-08T01:35:40.045Z,28.47
2023-05-08T01:36:40.051Z,28.44
2023-05-08T01:37:39.996Z,28.43
2023-05-08T01:38:39.987Z,28.44
2023-05-08T01:39:39.955Z,28.45
2023-05-08T01:40:39.992Z,28.48
2023-05-08T01:41:39.925Z,28.45
2023-05-08T01:42:39.891Z,28.42
2023-05-08T01:43:39.900Z,28.49
2023-05-08T01:44:39.893Z,28.48
2023-05-08T01:45:39.918Z,28.43
2023-05-08T01:46:39.996Z,28.42
2023-05-08T01:47:40.003Z,28.45
2023-05-08T01:48:40.004Z,28.45
2023-05-08T01:49:40.010Z,28.48
2023-05-08T01:50:40.039Z,28.42
2023-05-08T01:51:40.088Z,28.48
2023-05-08T01:52:40.088Z,28.47
2023-05-08T01:53:40.086Z,28.48
2023-05-08T01:54:40.052Z,28.48
2023-05-08T01:55:40.066Z,28.48
2023-05-08T01:56:40.019Z,28.47
2023-05-08T01:57:40.001Z,28.45
2023-05-08T01:58:40.053Z,28.45
2023-05-08T01:59:39.962Z,28.48
2023-05-08T02:00:40.155Z,28.47
2023-05-08T02:01:39.932Z,28.42
2023-05-08T02:02:39.998Z,28.45
2023-05-08T02:03:39.987Z,28.42
2023-05-08T02:04:39.877Z,28.52
2023-05-08T02:05:39.856Z,28.47
2023-05-08T02:06:39.846Z,28.48
2023-05-08T02:07:39.824Z,28.49
2023-05-08T02:08:39.800Z,28.52
2023-05-08T02:09:39.789Z,28.48
2023-05-08T02:10:39.763Z,28.45
2023-05-08T02:11:39.737Z,28.45
2023-05-08T02:12:39.755Z,28.49
2023-05-08T02:13:39.700Z,28.43
2023-05-08T02:14:39.686Z,28.48
2023-05-08T02:15:39.680Z,28.43
2023-05-08T02:16:39.721Z,28.47
2023-05-08T02:17:39.717Z,28.46
2023-05-08T02:18:39.640Z,28.43
2023-05-08T02:19:39.612Z,28.49
2023-05-08T02:20:39.608Z,28.47
2023-05-08T02:21:39.583Z,28.51
2023-05-08T02:22:39.573Z,28.46
2023-05-08T02:23:39.547Z,28.46
2023-05-08T02:24:39.522Z,28.46
2023-05-08T02:25:39.498Z,28.52
2023-05-08T02:26:39.490Z,28.49
2023-05-08T02:27:39.461Z,28.50
2023-05-08T02:28:39.451Z,28.49
2023-05-08T02:29:39.422Z,28.45
2023-05-08T02:30:39.463Z,28.50
2023-05-08T02:31:39.521Z,28.48
2023-05-08T02:32:39.539Z,28.46
2023-05-08T02:33:39.532Z,28.48
2023-05-08T02:34:45.187Z,28.52
2023-05-08T02:35:40.552Z,28.50
2023-05-08T02:36:39.535Z,28.48
2023-05-08T02:37:39.504Z,28.49
2023-05-08T02:38:39.515Z,28.45
2023-05-08T02:39:39.498Z,28.49
2023-05-08T02:40:39.455Z,28.49
2023-05-08T02:41:39.447Z,28.49
2023-05-08T02:42:39.413Z,28.51
2023-05-08T02:43:39.392Z,28.52
2023-05-08T02:44:39.356Z,28.46
2023-05-08T02:45:39.374Z,28.52
2023-05-08T02:46:39.411Z,28.54
2023-05-08T02:47:39.341Z,28.50
2023-05-08T02:48:39.304Z,28.47
2023-05-08T02:49:39.309Z,28.47
2023-05-08T02:50:39.336Z,28.50
2023-05-08T02:51:39.378Z,28.56
2023-05-08T02:52:39.402Z,28.50
2023-05-08T02:53:39.432Z,28.52
2023-05-08T02:54:39.446Z,28.53
2023-05-08T02:55:39.390Z,28.45
2023-05-08T02:56:39.378Z,28.52
2023-05-08T02:57:39.354Z,28.49
2023-05-08T02:58:39.328Z,28.50
2023-05-08T02:59:39.360Z,28.52
2023-05-08T03:00:39.296Z,28.50
2023-05-08T03:01:39.305Z,28.53
2023-05-08T03:02:39.382Z,28.62
2023-05-08T03:03:39.404Z,28.76
2023-05-08T03:04:39.224Z,28.87
2023-05-08T03:05:39.246Z,28.97
2023-05-08T03:06:39.304Z,29.10
2023-05-08T03:07:39.275Z,29.16
2023-05-08T03:08:39.252Z,29.23
2023-05-08T03:09:39.240Z,29.28
2023-05-08T03:10:39.226Z,29.35
2023-05-08T03:11:39.211Z,29.41
2023-05-08T03:12:41.325Z,29.50
2023-05-08T03:13:39.171Z,29.59
2023-05-08T03:14:39.158Z,29.69
2023-05-08T03:15:39.181Z,29.67
2023-05-08T03:16:39.143Z,29.77
2023-05-08T03:17:39.185Z,29.78
2023-05-08T03:18:39.100Z,29.81
2023-05-08T03:19:39.112Z,29.89
2023-05-08T03:20:39.089Z,29.93
2023-05-08T03:21:39.061Z,29.95
2023-05-08T03:22:39.075Z,30.03
2023-05-08T03:23:39.032Z,30.01
2023-05-08T03:24:39.031Z,30.04
2023-05-08T03:25:39.002Z,30.12
2023-05-08T03:26:38.988Z,30.16
2023-05-08T03:27:38.971Z,30.20
2023-05-08T03:28:38.968Z,30.23
2023-05-08T03:29:38.949Z,30.31
2023-05-08T03:30:38.937Z,30.35
2023-05-08T03:31:39.005Z,30.36
2023-05-08T03:32:38.943Z,30.38
2023-05-08T03:33:38.913Z,30.47
2023-05-08T03:34:38.877Z,30.45
2023-05-08T03:35:38.872Z,30.51
2023-05-08T03:36:38.880Z,30.56
2023-05-08T03:37:38.917Z,30.58
2023-05-08T03:38:38.959Z,30.62
2023-05-08T03:39:38.985Z,30.66
2023-05-08T03:40:39.048Z,30.73
2023-05-08T03:41:39.031Z,30.69
2023-05-08T03:42:39.052Z,30.78
2023-05-08T03:43:39.123Z,30.81
2023-05-08T03:44:39.038Z,30.89
2023-05-08T03:45:39.017Z,30.90
2023-05-08T03:46:39.034Z,30.87
2023-05-08T03:47:39.095Z,30.92
2023-05-08T03:48:39.025Z,30.97
2023-05-08T03:49:39.026Z,31.03
2023-05-08T03:50:39.028Z,31.00
2023-05-08T03:51:39.011Z,30.99
2023-05-08T03:52:39.004Z,31.01
2023-05-08T03:53:39.000Z,31.08
2023-05-08T03:54:38.993Z,31.08
2023-05-08T03:55:39.001Z,31.12
2023-05-08T03:56:38.986Z,31.13
2023-05-08T03:57:38.989Z,31.18
2023-05-08T03:58:38.959Z,31.19
2023-05-08T03:59:39.002Z,31.22
2023-05-08T04:00:38.950Z,31.23
2023-05-08T04:01:38.963Z,31.24
2023-05-08T04:02:42.024Z,31.26
2023-05-08T04:03:38.980Z,31.28
2023-05-08T04:04:38.894Z,31.28
2023-05-08T04:05:38.883Z,31.34
2023-05-08T04:06:48.471Z,31.30
2023-05-08T04:07:39.851Z,31.37
2023-05-08T04:08:38.843Z,31.39
2023-05-08T04:09:38.830Z,31.39
2023-05-08T04:10:38.816Z,31.42
2023-05-08T04:11:38.808Z,31.44
2023-05-08T04:12:38.959Z,31.48
2023-05-08T04:13:38.802Z,31.46
2023-05-08T04:14:38.799Z,31.45
2023-05-08T04:15:38.787Z,31.43
2023-05-08T04:16:38.827Z,31.51
2023-05-08T04:17:38.784Z,31.45
2023-05-08T04:18:38.752Z,31.49
2023-05-08T04:19:38.736Z,31.58
2023-05-08T04:20:38.728Z,31.56
2023-05-08T04:22:57.574Z,31.66
2023-05-08T04:23:57.550Z,31.66
2023-05-08T04:24:57.578Z,31.64
2023-05-08T04:25:57.551Z,31.65
2023-05-08T04:26:57.566Z,31.69
2023-05-08T04:27:57.587Z,31.67
2023-05-08T04:28:57.580Z,31.70
2023-05-08T04:29:57.575Z,31.74
2023-05-08T04:30:57.700Z,31.80
2023-05-08T04:31:57.624Z,31.76
2023-05-08T04:32:57.624Z,31.77
2023-05-08T04:33:57.591Z,31.84
2023-05-08T04:34:57.604Z,31.82
2023-05-08T04:35:57.604Z,31.84
2023-05-08T04:36:57.618Z,31.88
2023-05-08T04:37:57.621Z,31.91
2023-05-08T04:38:59.075Z,31.94
2023-05-08T04:39:57.645Z,31.95
2023-05-08T04:40:57.744Z,31.91
2023-05-08T04:41:57.760Z,31.94
2023-05-08T04:42:57.827Z,31.98
2023-05-08T04:43:57.835Z,31.98
2023-05-08T04:44:57.844Z,32.01
2023-05-08T04:45:57.853Z,32.01
2023-05-08T04:46:57.864Z,32.03
2023-05-08T04:47:57.886Z,32.05
2023-05-08T04:48:57.870Z,32.06
2023-05-08T04:49:59.512Z,32.06
2023-05-08T04:50:57.876Z,32.06
2023-05-08T04:51:57.897Z,32.09
2023-05-08T04:52:57.893Z,32.12
2023-05-08T04:53:57.895Z,32.15
2023-05-08T04:54:57.897Z,32.12
2023-05-08T04:55:57.904Z,32.11
2023-05-08T04:56:57.895Z,32.07
2023-05-08T04:57:57.901Z,32.14
2023-05-08T04:58:57.916Z,32.13
2023-05-08T04:59:57.907Z,32.13
2023-05-08T05:00:57.907Z,32.14
2023-05-08T05:01:57.978Z,32.14
2023-05-08T05:02:57.948Z,32.09
2023-05-08T05:03:57.934Z,32.07
2023-05-08T05:04:57.949Z,32.09
2023-05-08T05:05:57.935Z,32.09
2023-05-08T05:06:57.936Z,32.08
2023-05-08T05:07:57.944Z,32.13
2023-05-08T05:08:57.947Z,32.09
2023-05-08T05:09:57.952Z,32.07
2023-05-08T05:10:57.953Z,32.10
2023-05-08T05:11:58.381Z,32.13
2023-05-08T05:12:58.028Z,32.08
2023-05-08T05:13:57.975Z,32.01
2023-05-08T05:14:57.978Z,32.00
2023-05-08T05:15:57.992Z,31.97
2023-05-08T05:16:57.976Z,31.93
2023-05-08T05:17:58.042Z,31.94
2023-05-08T05:18:58.000Z,31.88
2023-05-08T05:19:58.001Z,31.91
2023-05-08T05:20:57.994Z,31.83
2023-05-08T05:21:58.012Z,31.81
2023-05-08T05:22:57.994Z,31.74
2023-05-08T05:23:57.991Z,31.71
2023-05-08T05:24:57.994Z,31.64
2023-05-08T05:25:58.004Z,31.63
2023-05-08T05:26:58.008Z,31.53
2023-05-08T05:27:58.020Z,31.55
2023-05-08T05:28:58.065Z,31.54
2023-05-08T05:29:58.108Z,31.48
2023-05-08T05:30:58.170Z,31.60
2023-05-08T05:31:58.296Z,31.57
2023-05-08T05:32:58.296Z,32.06
2023-05-08T05:33:58.283Z,32.22
2023-05-08T05:34:58.351Z,32.25
2023-05-08T05:35:58.414Z,32.56
2023-05-08T05:36:58.473Z,32.62
2023-05-08T05:37:58.690Z,32.71
2023-05-08T05:38:58.597Z,32.82
2023-05-08T05:39:58.633Z,33.16
2023-05-08T05:40:58.683Z,32.90
2023-05-08T05:41:58.755Z,33.45
2023-05-08T05:42:59.709Z,33.69
2023-05-08T05:43:58.744Z,33.25
2023-05-08T05:44:58.849Z,33.66
2023-05-08T05:45:58.894Z,33.66
2023-05-08T05:46:59.021Z,34.58
2023-05-08T05:47:59.226Z,34.63
2023-05-08T05:48:58.983Z,34.92
2023-05-08T05:49:59.069Z,34.83
2023-05-08T05:50:59.223Z,35.08
2023-05-08T05:51:59.167Z,35.16
2023-05-08T05:52:59.270Z,35.13
2023-05-08T05:53:59.376Z,35.22
2023-05-08T05:54:59.432Z,35.19
2023-05-08T05:55:59.470Z,35.15
2023-05-08T05:56:59.553Z,35.22
2023-05-08T05:57:59.586Z,35.52
2023-05-08T05:58:59.634Z,35.29
2023-05-08T05:59:59.676Z,35.26
2023-05-08T06:00:59.665Z,35.29
2023-05-08T06:01:59.735Z,35.38
2023-05-08T06:02:59.807Z,35.30
2023-05-08T06:03:59.785Z,35.31
2023-05-08T06:04:59.737Z,35.29
2023-05-08T06:05:59.926Z,35.14
2023-05-08T06:06:59.743Z,35.06
2023-05-08T06:07:59.743Z,34.98
2023-05-08T06:08:59.780Z,34.79
2023-05-08T06:09:59.779Z,35.14
2023-05-08T06:10:59.795Z,34.82
2023-05-08T06:11:59.785Z,34.79
2023-05-08T06:12:59.905Z,34.72
2023-05-08T06:13:59.801Z,34.45
2023-05-08T06:14:59.820Z,34.67
2023-05-08T06:15:59.899Z,34.51
2023-05-08T06:17:00.077Z,34.66
2023-05-08T06:18:00.139Z,34.58
2023-05-08T06:19:00.112Z,34.67
2023-05-08T06:20:00.112Z,34.34
2023-05-08T06:21:00.110Z,34.38
2023-05-08T06:22:00.127Z,34.44
2023-05-08T06:23:00.132Z,34.44
2023-05-08T06:24:00.110Z,34.38
2023-05-08T06:25:00.136Z,34.55
2023-05-08T06:26:00.245Z,34.60
2023-05-08T06:27:00.123Z,34.51
2023-05-08T06:28:00.118Z,34.39
2023-05-08T06:29:00.124Z,34.61
2023-05-08T06:30:00.196Z,34.36
2023-05-08T06:31:00.294Z,34.33
2023-05-08T06:32:00.123Z,34.51
2023-05-08T06:33:00.212Z,34.19
2023-05-08T06:34:00.157Z,34.47
2023-05-08T06:35:00.223Z,34.36
2023-05-08T06:36:00.165Z,34.31
2023-05-08T06:37:00.168Z,34.11
2023-05-08T06:38:00.207Z,34.34
2023-05-08T06:39:00.196Z,34.57
2023-05-08T06:40:11.692Z,34.24
2023-05-08T06:41:01.199Z,34.17
2023-05-08T06:42:00.216Z,34.54
2023-05-08T06:43:00.212Z,34.47
2023-05-08T06:44:00.225Z,34.80
2023-05-08T06:45:00.244Z,34.93
2023-05-08T06:46:00.263Z,34.75
2023-05-08T06:47:00.227Z,34.86
2023-05-08T06:48:00.294Z,34.68
2023-05-08T06:49:00.311Z,34.77
2023-05-08T06:50:00.219Z,34.51
2023-05-08T06:51:00.219Z,34.74
2023-05-08T06:52:00.229Z,34.47
2023-05-08T06:53:00.229Z,34.40
2023-05-08T06:54:00.225Z,34.47
2023-05-08T06:55:00.275Z,34.46
2023-05-08T06:56:00.221Z,34.56
2023-05-08T06:57:00.221Z,34.42
2023-05-08T06:58:00.229Z,34.43
2023-05-08T06:59:07.768Z,34.31
2023-05-08T07:00:01.238Z,34.38
2023-05-08T07:01:00.238Z,34.32
2023-05-08T07:02:00.323Z,34.50
2023-05-08T07:03:00.285Z,34.36
2023-05-08T07:04:00.225Z,34.34
2023-05-08T07:05:00.382Z,34.51
2023-05-08T07:06:00.213Z,34.53
2023-05-08T07:07:00.210Z,34.59
2023-05-08T07:08:00.215Z,34.59
2023-05-08T07:09:00.222Z,34.56
2023-05-08T07:10:00.227Z,34.70
2023-05-08T07:11:00.193Z,34.86
2023-05-08T07:12:00.197Z,34.63
2023-05-08T07:13:00.229Z,34.60
2023-05-08T07:14:00.194Z,34.85
2023-05-08T07:15:03.491Z,34.69
2023-05-08T07:16:01.230Z,34.77
2023-05-08T07:17:00.200Z,34.86
2023-05-08T07:18:00.243Z,34.70
2023-05-08T07:19:00.276Z,34.94
2023-05-08T07:20:00.212Z,34.86
2023-05-08T07:21:00.180Z,34.82
2023-05-08T07:22:00.220Z,34.92
2023-05-08T07:23:00.199Z,34.77
2023-05-08T07:24:00.233Z,34.76
2023-05-08T07:25:00.192Z,34.62
2023-05-08T07:26:00.190Z,34.65
2023-05-08T07:27:00.193Z,34.72
2023-05-08T07:28:01.462Z,34.55
2023-05-08T07:29:00.196Z,34.52
2023-05-08T07:30:00.189Z,34.47
2023-05-08T07:31:00.207Z,34.47
2023-05-08T07:32:00.338Z,34.38
2023-05-08T07:33:00.294Z,34.45
2023-05-08T07:34:00.189Z,34.31
2023-05-08T07:35:00.200Z,34.37
2023-05-08T07:36:00.185Z,34.53
2023-05-08T07:37:00.165Z,34.76
2023-05-08T07:38:00.199Z,34.91
2023-05-08T07:39:00.173Z,34.83
2023-05-08T07:40:00.168Z,34.58
2023-05-08T07:41:00.202Z,35.27
2023-05-08T07:42:00.161Z,34.25
2023-05-08T07:43:00.479Z,34.80
2023-05-08T07:44:00.142Z,35.16
2023-05-08T07:45:00.165Z,35.51
2023-05-08T07:46:00.146Z,35.95
2023-05-08T07:47:00.197Z,36.28
2023-05-08T07:48:00.272Z,36.80
2023-05-08T07:49:00.147Z,36.37
2023-05-08T07:50:00.190Z,36.53
2023-05-08T07:51:00.197Z,36.95
2023-05-08T07:52:00.182Z,37.20
2023-05-08T07:53:00.188Z,37.08
2023-05-08T07:54:00.189Z,37.54
2023-05-08T07:55:00.227Z,37.44
2023-05-08T07:56:00.201Z,37.33
2023-05-08T07:57:00.208Z,37.39
2023-05-08T07:58:00.290Z,37.37
2023-05-08T07:59:00.281Z,37.17
2023-05-08T08:00:00.286Z,37.07
2023-05-08T08:01:00.283Z,36.95
2023-05-08T08:02:00.401Z,36.89
2023-05-08T08:03:00.454Z,36.86
2023-05-08T08:04:00.520Z,36.69
2023-05-08T08:05:00.510Z,36.64
2023-05-08T08:06:00.567Z,36.54
2023-05-08T08:07:01.302Z,36.81
2023-05-08T08:08:00.711Z,36.62
2023-05-08T08:09:00.744Z,36.61
2023-05-08T08:10:00.795Z,36.47
2023-05-08T08:11:02.935Z,36.45
2023-05-08T08:12:00.832Z,36.47
2023-05-08T08:13:00.903Z,36.36
2023-05-08T08:14:00.848Z,36.27
2023-05-08T08:15:00.924Z,36.26
2023-05-08T08:16:00.805Z,36.25
2023-05-08T08:17:00.859Z,36.24
2023-05-08T08:18:00.897Z,36.75
2023-05-08T08:19:00.814Z,36.81
2023-05-08T08:20:00.813Z,36.68
2023-05-08T08:21:00.787Z,36.38
2023-05-08T08:22:00.795Z,36.14
2023-05-08T08:23:00.801Z,35.93
2023-05-08T08:24:00.786Z,35.70
2023-05-08T08:25:00.795Z,35.59
2023-05-08T08:26:00.767Z,35.54
2023-05-08T08:27:00.768Z,35.43
2023-05-08T08:28:00.800Z,35.37
2023-05-08T08:29:00.820Z,35.26
2023-05-08T08:30:16.077Z,35.22
2023-05-08T08:31:01.982Z,35.48
2023-05-08T08:32:00.817Z,35.36
2023-05-08T08:33:00.846Z,35.32
2023-05-08T08:34:00.820Z,35.19
2023-05-08T08:35:00.819Z,35.02
2023-05-08T08:36:00.817Z,34.99
2023-05-08T08:37:00.841Z,34.99
2023-05-08T08:38:00.820Z,34.91
2023-05-08T08:39:00.811Z,34.84
2023-05-08T08:40:00.821Z,34.86
2023-05-08T08:41:00.815Z,34.72
2023-05-08T08:42:00.799Z,34.75
2023-05-08T08:43:00.824Z,34.64
2023-05-08T08:44:00.803Z,34.68
2023-05-08T08:45:00.810Z,34.65
2023-05-08T08:46:00.848Z,34.65
2023-05-08T08:47:00.903Z,34.63
2023-05-08T08:48:00.885Z,34.65
2023-05-08T08:49:00.796Z,34.58
2023-05-08T08:50:00.785Z,34.49
2023-05-08T08:51:00.788Z,34.52
2023-05-08T08:52:00.814Z,34.61
2023-05-08T08:53:00.797Z,34.57
2023-05-08T08:54:00.781Z,35.24
2023-05-08T08:55:00.793Z,35.33
2023-05-08T08:56:00.803Z,35.03
2023-05-08T08:57:00.787Z,34.91
2023-05-08T08:58:00.763Z,35.02
2023-05-08T08:59:00.773Z,35.01
2023-05-08T09:00:00.784Z,34.98
2023-05-08T09:01:00.761Z,35.02
2023-05-08T09:02:00.785Z,35.11
2023-05-08T09:03:00.888Z,35.13
2023-05-08T09:04:00.846Z,34.94
2023-05-08T09:05:00.724Z,35.25
2023-05-08T09:06:00.732Z,35.11
2023-05-08T09:07:00.734Z,35.06
2023-05-08T09:08:00.742Z,35.06
2023-05-08T09:09:00.734Z,35.03
2023-05-08T09:10:00.772Z,35.17
2023-05-08T09:11:00.743Z,35.06
2023-05-08T09:12:00.731Z,35.12
2023-05-08T09:13:00.833Z,34.97
2023-05-08T09:14:00.739Z,34.92
2023-05-08T09:15:00.722Z,34.86
2023-05-08T09:16:00.797Z,35.22
2023-05-08T09:17:00.757Z,35.26
2023-05-08T09:18:00.832Z,35.21
2023-05-08T09:19:00.877Z,35.12
2023-05-08T09:20:00.808Z,35.03
2023-05-08T09:21:00.809Z,35.20
2023-05-08T09:22:00.810Z,35.01
2023-05-08T09:23:00.798Z,34.98
2023-05-08T09:24:00.794Z,34.97
2023-05-08T09:25:00.795Z,34.96
2023-05-08T09:26:00.794Z,34.90
2023-05-08T09:27:00.794Z,34.93
2023-05-08T09:28:00.803Z,35.03
2023-05-08T09:29:00.794Z,35.19
2023-05-08T09:30:00.811Z,35.20
2023-05-08T09:31:00.804Z,35.34
2023-05-08T09:32:00.840Z,35.28
2023-05-08T09:33:00.845Z,35.38
2023-05-08T09:34:00.792Z,35.42
2023-05-08T09:35:00.869Z,35.43
2023-05-08T09:36:00.786Z,35.41
2023-05-08T09:37:00.774Z,35.41
2023-05-08T09:38:00.777Z,35.43
2023-05-08T09:39:00.759Z,35.41
2023-05-08T09:40:00.782Z,35.38
2023-05-08T09:41:00.761Z,35.77
2023-05-08T09:42:00.821Z,35.65
2023-05-08T09:43:00.861Z,35.77
2023-05-08T09:44:00.759Z,35.21
2023-05-08T09:45:00.734Z,34.55
2023-05-08T09:46:00.763Z,34.07
2023-05-08T09:47:00.723Z,33.88
2023-05-08T09:48:00.764Z,34.09
2023-05-08T09:49:00.707Z,33.81
2023-05-08T09:50:00.747Z,33.90
2023-05-08T09:51:00.797Z,34.32
2023-05-08T09:52:00.772Z,34.59
2023-05-08T09:53:00.716Z,34.70
2023-05-08T09:54:00.717Z,35.11
2023-05-08T09:55:00.737Z,34.72
2023-05-08T09:56:00.712Z,34.75
2023-05-08T09:57:00.749Z,35.03
2023-05-08T09:58:00.702Z,34.85
2023-05-08T09:59:00.736Z,35.14
2023-05-08T10:00:00.774Z,35.24
2023-05-08T10:01:00.902Z,35.23
2023-05-08T10:02:00.883Z,35.31
2023-05-08T10:03:01.068Z,35.46
2023-05-08T10:04:01.024Z,35.37
2023-05-08T10:05:01.081Z,35.42
2023-05-08T10:06:01.123Z,35.24
2023-05-08T10:07:01.274Z,34.97
2023-05-08T10:08:01.248Z,35.30
2023-05-08T10:09:01.290Z,35.29
2023-05-08T10:10:01.253Z,35.17
2023-05-08T10:11:01.250Z,35.56
2023-05-08T10:12:01.229Z,35.56
2023-05-08T10:13:01.247Z,35.05
2023-05-08T10:14:01.225Z,35.43
2023-05-08T10:15:01.232Z,35.25
2023-05-08T10:16:01.198Z,35.53
2023-05-08T10:17:01.277Z,35.56
2023-05-08T10:18:01.233Z,35.48
2023-05-08T10:19:01.163Z,35.33
2023-05-08T10:20:01.153Z,35.29
2023-05-08T10:21:01.223Z,35.55
2023-05-08T10:22:01.181Z,35.51
2023-05-08T10:23:01.270Z,35.47
2023-05-08T10:24:01.190Z,35.49
2023-05-08T10:25:01.143Z,35.46
2023-05-08T10:26:01.152Z,35.50
2023-05-08T10:27:06.141Z,35.48
2023-05-08T10:28:02.200Z,35.46
2023-05-08T10:29:01.114Z,35.40
2023-05-08T10:30:01.164Z,35.45
2023-05-08T10:31:01.169Z,35.44
2023-05-08T10:32:01.099Z,35.38
2023-05-08T10:33:01.158Z,35.31
2023-05-08T10:34:01.097Z,35.28
2023-05-08T10:35:01.075Z,35.27
2023-05-08T10:36:01.078Z,35.28
2023-05-08T10:37:01.057Z,35.07
2023-05-08T10:38:01.071Z,34.64
2023-05-08T10:39:01.151Z,34.97
2023-05-08T10:40:01.054Z,34.89
2023-05-08T10:41:00.997Z,35.02
2023-05-08T10:42:00.999Z,34.92
2023-05-08T10:43:01.001Z,33.97
2023-05-08T10:44:03.136Z,33.83
2023-05-08T10:45:01.072Z,33.61
2023-05-08T10:46:01.151Z,34.02
2023-05-08T10:47:01.180Z,33.85
2023-05-08T10:48:01.276Z,33.56
2023-05-08T10:49:01.283Z,33.84
2023-05-08T10:50:01.347Z,33.78
2023-05-08T10:51:01.390Z,33.65
2023-05-08T10:52:01.419Z,34.11
2023-05-08T10:53:01.435Z,34.34
2023-05-08T10:54:01.485Z,34.50
2023-05-08T10:55:01.540Z,34.37
2023-05-08T10:56:01.604Z,33.93
2023-05-08T10:57:01.663Z,34.02
2023-05-08T10:58:01.750Z,34.29
2023-05-08T10:59:01.775Z,34.04
2023-05-08T11:00:01.821Z,34.18
2023-05-08T11:01:01.888Z,34.21
2023-05-08T11:02:01.949Z,34.12
2023-05-08T11:03:02.017Z,34.18
2023-05-08T11:04:02.111Z,34.36
2023-05-08T11:05:02.063Z,34.03
2023-05-08T11:06:02.210Z,33.95
2023-05-08T11:07:02.162Z,34.07
2023-05-08T11:08:02.240Z,34.07
2023-05-08T11:09:02.307Z,34.09
2023-05-08T11:10:02.342Z,34.09
2023-05-08T11:11:02.397Z,33.94
2023-05-08T11:12:02.448Z,34.43
2023-05-08T11:13:02.532Z,34.39
2023-05-08T11:14:02.557Z,34.15
2023-05-08T11:15:02.599Z,34.18
2023-05-08T11:16:02.637Z,34.05
2023-05-08T11:17:02.624Z,34.42
2023-05-08T11:18:02.621Z,34.56
2023-05-08T11:19:02.588Z,34.38
2023-05-08T11:20:02.592Z,34.43
2023-05-08T11:21:02.593Z,34.50
2023-05-08T11:22:02.600Z,34.66
2023-05-08T11:23:02.556Z,34.74
2023-05-08T11:24:02.563Z,34.97
2023-05-08T11:25:02.532Z,34.95
2023-05-08T11:26:02.530Z,34.98
2023-05-08T11:27:02.520Z,35.09
2023-05-08T11:28:02.534Z,35.26
2023-05-08T11:29:02.565Z,35.38
2023-05-08T11:30:02.569Z,35.06
2023-05-08T11:31:02.597Z,34.83
2023-05-08T11:32:02.658Z,34.64
2023-05-08T11:33:02.647Z,33.98
2023-05-08T11:34:02.669Z,34.33
2023-05-08T11:35:02.646Z,34.17
2023-05-08T11:36:02.673Z,34.08
2023-05-08T11:37:02.683Z,33.99
2023-05-08T11:38:02.721Z,34.02
2023-05-08T11:39:02.732Z,34.01
2023-05-08T11:40:02.756Z,33.94
2023-05-08T11:41:02.768Z,33.93
2023-05-08T11:42:02.730Z,33.92
2023-05-08T11:43:02.722Z,33.84
2023-05-08T11:44:02.707Z,33.81
2023-05-08T11:45:02.720Z,33.77
2023-05-08T11:46:02.687Z,33.90
2023-05-08T11:47:02.753Z,34.19
2023-05-08T11:48:02.692Z,33.91
2023-05-08T11:49:02.678Z,33.77
2023-05-08T11:50:02.682Z,33.65
2023-05-08T11:51:02.670Z,33.63
2023-05-08T11:52:02.654Z,33.57
2023-05-08T11:53:02.631Z,33.54
2023-05-08T11:54:02.616Z,33.40
2023-05-08T11:55:02.606Z,33.42
2023-05-08T11:56:02.586Z,33.38
2023-05-08T11:57:02.583Z,33.34
2023-05-08T11:58:02.572Z,33.53
2023-05-08T11:59:02.557Z,36.42
2023-05-08T12:00:02.571Z,37.06
2023-05-08T12:01:02.548Z,36.89
2023-05-08T12:02:08.553Z,38.93
2023-05-08T12:03:03.546Z,38.22
2023-05-08T12:04:02.702Z,36.82
2023-05-08T12:05:02.573Z,36.41
2023-05-08T12:06:02.461Z,36.01
2023-05-08T12:07:02.445Z,35.86
2023-05-08T12:08:02.437Z,35.73
2023-05-08T12:09:02.421Z,35.56
2023-05-08T12:10:02.435Z,35.53
2023-05-08T12:11:02.405Z,35.45
2023-05-08T12:12:02.406Z,35.32
2023-05-08T12:13:02.464Z,35.28
2023-05-08T12:14:02.371Z,35.16
2023-05-08T12:15:02.354Z,35.14
2023-05-08T12:16:02.349Z,35.05
2023-05-08T12:17:02.388Z,34.93
2023-05-08T12:18:02.313Z,34.96
2023-05-08T12:19:02.288Z,34.88
2023-05-08T12:20:02.335Z,34.83
2023-05-08T12:21:02.402Z,34.80
2023-05-08T12:22:02.448Z,34.72
2023-05-08T12:23:02.501Z,34.71
2023-05-08T12:24:02.566Z,34.56
2023-05-08T12:25:02.595Z,34.56
2023-05-08T12:26:02.666Z,34.47
2023-05-08T12:27:02.716Z,34.42
2023-05-08T12:28:02.766Z,34.35
2023-05-08T12:29:02.833Z,34.36
2023-05-08T12:30:02.869Z,34.34
2023-05-08T12:31:02.952Z,34.32
2023-05-08T12:32:02.957Z,34.28
2023-05-08T12:33:03.032Z,34.18
2023-05-08T12:34:02.930Z,34.15
2023-05-08T12:35:02.926Z,34.07
2023-05-08T12:36:02.892Z,34.10
2023-05-08T12:37:02.876Z,34.01
2023-05-08T12:38:02.860Z,33.98
2023-05-08T12:39:02.848Z,33.90
2023-05-08T12:40:02.830Z,33.94
2023-05-08T12:41:02.870Z,33.87
2023-05-08T12:42:02.939Z,33.92
2023-05-08T12:43:02.971Z,33.86
2023-05-08T12:44:03.030Z,33.86
2023-05-08T12:45:03.064Z,33.83
2023-05-08T12:46:03.168Z,33.79
2023-05-08T12:47:03.306Z,33.85
2023-05-08T12:48:03.258Z,33.79
2023-05-08T12:49:03.281Z,33.70
2023-05-08T12:50:03.294Z,33.68
2023-05-08T12:52:22.144Z,33.69
2023-05-08T12:53:22.135Z,33.60
2023-05-08T12:54:22.149Z,33.56
2023-05-08T12:55:22.158Z,33.56